sensor_id;sensor_type;location;lat;lon;timestamp;temperature;humidity
9414;DHT22;4746;35.664;139.738;2023-02-28T00:02:04;11.00;83.90
9414;DHT22;4746;35.664;139.738;2023-02-28T00:04:32;11.10;83.10
9414;DHT22;4746;35.664;139.738;2023-02-28T00:06:59;11.10;82.40
9414;DHT22;4746;35.664;139.738;2023-02-28T00:09:29;11.10;82.50
9414;DHT22;4746;35.664;139.738;2023-02-28T00:11:58;11.10;82.90
9414;DHT22;4746;35.664;139.738;2023-02-28T00:14:40;11.00;83.90
9414;DHT22;4746;35.664;139.738;2023-02-28T00:17:11;10.90;82.50
9414;DHT22;4746;35.664;139.738;2023-02-28T00:19:44;10.80;83.80
9414;DHT22;4746;35.664;139.738;2023-02-28T00:22:20;10.90;84.70
9414;DHT22;4746;35.664;139.738;2023-02-28T00:24:48;11.00;84.60
9414;DHT22;4746;35.664;139.738;2023-02-28T00:27:19;11.20;84.90
9414;DHT22;4746;35.664;139.738;2023-02-28T00:29:50;11.30;84.70
9414;DHT22;4746;35.664;139.738;2023-02-28T00:32:21;11.30;84.60
9414;DHT22;4746;35.664;139.738;2023-02-28T00:34:49;11.20;81.80
9414;DHT22;4746;35.664;139.738;2023-02-28T00:37:16;11.10;80.40
9414;DHT22;4746;35.664;139.738;2023-02-28T00:39:44;11.00;79.80
9414;DHT22;4746;35.664;139.738;2023-02-28T00:42:12;11.10;80.80
9414;DHT22;4746;35.664;139.738;2023-02-28T00:44:39;11.10;80.00
9414;DHT22;4746;35.664;139.738;2023-02-28T00:47:08;11.20;79.90
9414;DHT22;4746;35.664;139.738;2023-02-28T00:49:36;11.20;80.10
9414;DHT22;4746;35.664;139.738;2023-02-28T00:52:05;11.30;79.70
9414;DHT22;4746;35.664;139.738;2023-02-28T00:54:32;11.40;79.90
9414;DHT22;4746;35.664;139.738;2023-02-28T00:57:03;11.60;80.90
9414;DHT22;4746;35.664;139.738;2023-02-28T00:59:36;11.80;81.00
9414;DHT22;4746;35.664;139.738;2023-02-28T01:02:03;12.00;80.00
9414;DHT22;4746;35.664;139.738;2023-02-28T01:04:31;12.20;79.60
9414;DHT22;4746;35.664;139.738;2023-02-28T01:07:08;12.30;80.60
9414;DHT22;4746;35.664;139.738;2023-02-28T01:09:50;12.30;79.80
9414;DHT22;4746;35.664;139.738;2023-02-28T01:12:35;12.30;82.00
9414;DHT22;4746;35.664;139.738;2023-02-28T01:15:10;12.30;80.10
9414;DHT22;4746;35.664;139.738;2023-02-28T01:17:38;12.30;80.90
9414;DHT22;4746;35.664;139.738;2023-02-28T01:20:06;12.40;80.80
9414;DHT22;4746;35.664;139.738;2023-02-28T01:22:35;12.50;81.60
9414;DHT22;4746;35.664;139.738;2023-02-28T01:25:03;12.70;81.90
9414;DHT22;4746;35.664;139.738;2023-02-28T01:27:33;12.80;82.30
9414;DHT22;4746;35.664;139.738;2023-02-28T01:30:02;12.80;82.60
9414;DHT22;4746;35.664;139.738;2023-02-28T01:32:30;12.90;85.00
9414;DHT22;4746;35.664;139.738;2023-02-28T01:34:58;12.90;83.40
9414;DHT22;4746;35.664;139.738;2023-02-28T01:37:25;12.90;83.60
9414;DHT22;4746;35.664;139.738;2023-02-28T01:39:53;13.00;84.40
9414;DHT22;4746;35.664;139.738;2023-02-28T01:42:21;13.10;84.70
9414;DHT22;4746;35.664;139.738;2023-02-28T01:47:45;13.30;84.70
9414;DHT22;4746;35.664;139.738;2023-02-28T01:50:23;13.60;85.20
9414;DHT22;4746;35.664;139.738;2023-02-28T01:53:00;13.70;84.00
9414;DHT22;4746;35.664;139.738;2023-02-28T01:55:32;13.80;84.00
9414;DHT22;4746;35.664;139.738;2023-02-28T01:58:04;14.10;85.50
9414;DHT22;4746;35.664;139.738;2023-02-28T02:00:33;14.30;82.80
9414;DHT22;4746;35.664;139.738;2023-02-28T02:03:12;14.50;81.90
9414;DHT22;4746;35.664;139.738;2023-02-28T02:05:45;14.70;80.40
9414;DHT22;4746;35.664;139.738;2023-02-28T02:08:17;14.80;80.70
9414;DHT22;4746;35.664;139.738;2023-02-28T02:11:02;14.90;81.40
9414;DHT22;4746;35.664;139.738;2023-02-28T02:13:43;15.00;77.40
9414;DHT22;4746;35.664;139.738;2023-02-28T02:16:59;15.00;65.20
9414;DHT22;4746;35.664;139.738;2023-02-28T02:29:58;15.30;67.20
9414;DHT22;4746;35.664;139.738;2023-02-28T02:41:53;15.80;61.00
9414;DHT22;4746;35.664;139.738;2023-02-28T02:44:29;15.50;61.60
9414;DHT22;4746;35.664;139.738;2023-02-28T02:47:18;15.50;62.40
9414;DHT22;4746;35.664;139.738;2023-02-28T02:49:53;15.50;62.20
9414;DHT22;4746;35.664;139.738;2023-02-28T02:52:35;15.50;62.60
9414;DHT22;4746;35.664;139.738;2023-02-28T02:55:08;15.70;61.90
9414;DHT22;4746;35.664;139.738;2023-02-28T02:57:50;15.60;60.30
9414;DHT22;4746;35.664;139.738;2023-02-28T03:00:34;15.80;59.50
9414;DHT22;4746;35.664;139.738;2023-02-28T03:03:07;15.80;59.40
9414;DHT22;4746;35.664;139.738;2023-02-28T03:05:49;15.90;59.10
9414;DHT22;4746;35.664;139.738;2023-02-28T03:08:17;16.10;58.30
9414;DHT22;4746;35.664;139.738;2023-02-28T03:10:49;16.20;58.10
9414;DHT22;4746;35.664;139.738;2023-02-28T03:33:10;16.80;54.50
9414;DHT22;4746;35.664;139.738;2023-02-28T03:35:56;17.00;53.70
9414;DHT22;4746;35.664;139.738;2023-02-28T03:38:49;17.30;52.70
9414;DHT22;4746;35.664;139.738;2023-02-28T03:41:29;17.40;51.20
9414;DHT22;4746;35.664;139.738;2023-02-28T03:44:14;17.40;52.00
9414;DHT22;4746;35.664;139.738;2023-02-28T03:47:21;17.60;52.00
9414;DHT22;4746;35.664;139.738;2023-02-28T03:52:47;17.50;54.40
9414;DHT22;4746;35.664;139.738;2023-02-28T03:55:20;17.70;53.80
9414;DHT22;4746;35.664;139.738;2023-02-28T03:58:05;17.70;52.50
9414;DHT22;4746;35.664;139.738;2023-02-28T04:03:43;17.70;51.50
9414;DHT22;4746;35.664;139.738;2023-02-28T04:06:20;17.80;52.80
9414;DHT22;4746;35.664;139.738;2023-02-28T04:08:50;17.50;50.60
9414;DHT22;4746;35.664;139.738;2023-02-28T04:11:49;17.40;51.20
9414;DHT22;4746;35.664;139.738;2023-02-28T04:14:19;17.30;50.50
9414;DHT22;4746;35.664;139.738;2023-02-28T04:16:46;17.30;51.60
9414;DHT22;4746;35.664;139.738;2023-02-28T04:19:17;17.50;51.10
9414;DHT22;4746;35.664;139.738;2023-02-28T04:21:47;17.50;50.60
9414;DHT22;4746;35.664;139.738;2023-02-28T04:24:27;17.70;50.90
9414;DHT22;4746;35.664;139.738;2023-02-28T04:26:57;17.90;50.40
9414;DHT22;4746;35.664;139.738;2023-02-28T04:29:30;18.10;50.40
9414;DHT22;4746;35.664;139.738;2023-02-28T04:31:59;18.30;50.50
9414;DHT22;4746;35.664;139.738;2023-02-28T04:34:30;18.40;50.70
9414;DHT22;4746;35.664;139.738;2023-02-28T04:37:00;18.70;50.20
9414;DHT22;4746;35.664;139.738;2023-02-28T04:39:29;18.50;49.40
9414;DHT22;4746;35.664;139.738;2023-02-28T04:41:56;18.50;49.50
9414;DHT22;4746;35.664;139.738;2023-02-28T04:44:24;18.50;49.50
9414;DHT22;4746;35.664;139.738;2023-02-28T04:46:54;18.70;48.90
9414;DHT22;4746;35.664;139.738;2023-02-28T04:49:21;18.90;48.20
9414;DHT22;4746;35.664;139.738;2023-02-28T04:51:52;19.10;48.10
9414;DHT22;4746;35.664;139.738;2023-02-28T04:54:19;19.50;47.90
9414;DHT22;4746;35.664;139.738;2023-02-28T04:56:47;19.80;47.10
9414;DHT22;4746;35.664;139.738;2023-02-28T04:59:16;19.90;46.70
9414;DHT22;4746;35.664;139.738;2023-02-28T05:01:47;20.00;46.10
9414;DHT22;4746;35.664;139.738;2023-02-28T05:04:15;20.10;45.60
9414;DHT22;4746;35.664;139.738;2023-02-28T05:06:45;20.00;45.30
9414;DHT22;4746;35.664;139.738;2023-02-28T05:09:13;20.30;44.80
9414;DHT22;4746;35.664;139.738;2023-02-28T05:11:41;20.70;44.50
9414;DHT22;4746;35.664;139.738;2023-02-28T05:14:13;21.00;44.10
9414;DHT22;4746;35.664;139.738;2023-02-28T05:16:41;21.00;42.10
9414;DHT22;4746;35.664;139.738;2023-02-28T05:19:08;20.80;41.50
9414;DHT22;4746;35.664;139.738;2023-02-28T05:21:41;21.00;41.00
9414;DHT22;4746;35.664;139.738;2023-02-28T05:24:19;21.30;39.70
9414;DHT22;4746;35.664;139.738;2023-02-28T05:26:51;21.30;38.90
9414;DHT22;4746;35.664;139.738;2023-02-28T05:29:20;21.60;38.60
9414;DHT22;4746;35.664;139.738;2023-02-28T05:31:48;21.70;38.20
9414;DHT22;4746;35.664;139.738;2023-02-28T05:34:15;21.50;36.90
9414;DHT22;4746;35.664;139.738;2023-02-28T05:36:43;22.20;37.20
9414;DHT22;4746;35.664;139.738;2023-02-28T05:39:12;22.50;36.80
9414;DHT22;4746;35.664;139.738;2023-02-28T05:41:41;22.60;36.00
9414;DHT22;4746;35.664;139.738;2023-02-28T05:44:09;23.00;36.20
9414;DHT22;4746;35.664;139.738;2023-02-28T05:46:37;23.30;35.70
9414;DHT22;4746;35.664;139.738;2023-02-28T05:49:05;23.80;35.80
9414;DHT22;4746;35.664;139.738;2023-02-28T05:51:32;23.50;35.20
9414;DHT22;4746;35.664;139.738;2023-02-28T05:54:02;22.70;34.70
9414;DHT22;4746;35.664;139.738;2023-02-28T05:56:30;22.80;35.60
9414;DHT22;4746;35.664;139.738;2023-02-28T05:58:58;22.20;35.30
9414;DHT22;4746;35.664;139.738;2023-02-28T06:04:15;23.00;35.40
9414;DHT22;4746;35.664;139.738;2023-02-28T06:06:46;23.50;35.10
9414;DHT22;4746;35.664;139.738;2023-02-28T06:09:14;23.90;35.20
9414;DHT22;4746;35.664;139.738;2023-02-28T06:11:42;23.90;35.20
9414;DHT22;4746;35.664;139.738;2023-02-28T06:14:16;24.10;34.00
9414;DHT22;4746;35.664;139.738;2023-02-28T06:16:45;23.90;33.80
9414;DHT22;4746;35.664;139.738;2023-02-28T06:19:13;23.90;33.90
9414;DHT22;4746;35.664;139.738;2023-02-28T06:21:42;23.50;34.20
9414;DHT22;4746;35.664;139.738;2023-02-28T06:24:10;23.90;33.00
9414;DHT22;4746;35.664;139.738;2023-02-28T06:26:38;23.90;32.80
9414;DHT22;4746;35.664;139.738;2023-02-28T06:29:05;24.00;32.40
9414;DHT22;4746;35.664;139.738;2023-02-28T06:31:33;23.10;32.90
9414;DHT22;4746;35.664;139.738;2023-02-28T06:34:01;22.90;33.20
9414;DHT22;4746;35.664;139.738;2023-02-28T06:36:31;22.60;32.80
9414;DHT22;4746;35.664;139.738;2023-02-28T06:38:58;23.40;33.00
9414;DHT22;4746;35.664;139.738;2023-02-28T06:41:26;23.40;32.90
9414;DHT22;4746;35.664;139.738;2023-02-28T06:43:54;23.00;32.80
9414;DHT22;4746;35.664;139.738;2023-02-28T06:46:22;23.00;32.40
9414;DHT22;4746;35.664;139.738;2023-02-28T06:48:50;22.70;33.10
9414;DHT22;4746;35.664;139.738;2023-02-28T06:51:20;22.80;33.80
9414;DHT22;4746;35.664;139.738;2023-02-28T06:53:50;22.70;33.40
9414;DHT22;4746;35.664;139.738;2023-02-28T06:56:20;22.40;32.80
9414;DHT22;4746;35.664;139.738;2023-02-28T06:58:49;22.60;32.90
9414;DHT22;4746;35.664;139.738;2023-02-28T07:01:19;22.60;32.50
9414;DHT22;4746;35.664;139.738;2023-02-28T07:03:51;22.40;33.30
9414;DHT22;4746;35.664;139.738;2023-02-28T07:06:23;22.40;33.40
9414;DHT22;4746;35.664;139.738;2023-02-28T07:08:52;21.90;32.50
9414;DHT22;4746;35.664;139.738;2023-02-28T07:11:21;21.40;32.90
9414;DHT22;4746;35.664;139.738;2023-02-28T07:13:52;21.90;33.40
9414;DHT22;4746;35.664;139.738;2023-02-28T07:16:22;22.80;33.20
9414;DHT22;4746;35.664;139.738;2023-02-28T07:18:53;22.90;32.40
9414;DHT22;4746;35.664;139.738;2023-02-28T07:21:21;22.70;32.30
9414;DHT22;4746;35.664;139.738;2023-02-28T07:23:49;22.40;32.40
9414;DHT22;4746;35.664;139.738;2023-02-28T07:26:19;22.60;31.80
9414;DHT22;4746;35.664;139.738;2023-02-28T07:28:48;22.20;31.90
9414;DHT22;4746;35.664;139.738;2023-02-28T07:31:17;22.80;32.70
9414;DHT22;4746;35.664;139.738;2023-02-28T07:33:45;23.00;31.80
9414;DHT22;4746;35.664;139.738;2023-02-28T07:36:15;23.40;31.90
9414;DHT22;4746;35.664;139.738;2023-02-28T07:38:46;23.80;31.70
9414;DHT22;4746;35.664;139.738;2023-02-28T07:41:17;23.90;31.40
9414;DHT22;4746;35.664;139.738;2023-02-28T07:43:47;23.90;31.20
9414;DHT22;4746;35.664;139.738;2023-02-28T07:46:16;23.60;30.90
9414;DHT22;4746;35.664;139.738;2023-02-28T07:48:46;24.00;31.10
9414;DHT22;4746;35.664;139.738;2023-02-28T07:51:13;23.10;31.50
9414;DHT22;4746;35.664;139.738;2023-02-28T07:53:41;23.40;31.50
9414;DHT22;4746;35.664;139.738;2023-02-28T07:56:09;23.00;31.80
9414;DHT22;4746;35.664;139.738;2023-02-28T07:58:37;23.00;31.90
9414;DHT22;4746;35.664;139.738;2023-02-28T08:01:09;22.30;32.00
9414;DHT22;4746;35.664;139.738;2023-02-28T08:03:38;21.30;32.50
9414;DHT22;4746;35.664;139.738;2023-02-28T08:06:08;21.40;33.20
9414;DHT22;4746;35.664;139.738;2023-02-28T08:08:43;21.80;33.30
9414;DHT22;4746;35.664;139.738;2023-02-28T08:11:11;21.80;33.50
9414;DHT22;4746;35.664;139.738;2023-02-28T08:13:39;20.70;33.60
9414;DHT22;4746;35.664;139.738;2023-02-28T08:16:08;20.50;34.70
9414;DHT22;4746;35.664;139.738;2023-02-28T08:18:36;19.70;34.60
9414;DHT22;4746;35.664;139.738;2023-02-28T08:21:08;19.30;35.40
9414;DHT22;4746;35.664;139.738;2023-02-28T08:23:37;19.00;35.50
9414;DHT22;4746;35.664;139.738;2023-02-28T08:26:05;18.70;36.10
9414;DHT22;4746;35.664;139.738;2023-02-28T08:28:33;18.70;36.10
9414;DHT22;4746;35.664;139.738;2023-02-28T08:31:01;18.40;36.60
9414;DHT22;4746;35.664;139.738;2023-02-28T08:33:35;18.20;36.90
9414;DHT22;4746;35.664;139.738;2023-02-28T08:36:06;18.00;37.00
9414;DHT22;4746;35.664;139.738;2023-02-28T08:38:36;17.60;36.90
9414;DHT22;4746;35.664;139.738;2023-02-28T08:41:07;17.50;37.20
9414;DHT22;4746;35.664;139.738;2023-02-28T08:43:37;17.10;37.10
9414;DHT22;4746;35.664;139.738;2023-02-28T08:46:06;17.10;37.30
9414;DHT22;4746;35.664;139.738;2023-02-28T08:48:35;17.00;36.90
9414;DHT22;4746;35.664;139.738;2023-02-28T08:51:09;16.80;37.20
9414;DHT22;4746;35.664;139.738;2023-02-28T08:53:39;16.60;37.00
9414;DHT22;4746;35.664;139.738;2023-02-28T08:56:12;16.50;37.50
9414;DHT22;4746;35.664;139.738;2023-02-28T08:58:42;16.50;37.40
9414;DHT22;4746;35.664;139.738;2023-02-28T09:01:13;16.30;37.40
9414;DHT22;4746;35.664;139.738;2023-02-28T09:03:50;16.30;37.50
9414;DHT22;4746;35.664;139.738;2023-02-28T09:06:19;16.20;37.60
9414;DHT22;4746;35.664;139.738;2023-02-28T09:08:49;16.20;37.60
9414;DHT22;4746;35.664;139.738;2023-02-28T09:11:18;16.20;37.90
9414;DHT22;4746;35.664;139.738;2023-02-28T09:13:48;16.00;37.90
9414;DHT22;4746;35.664;139.738;2023-02-28T09:16:17;15.80;38.30
9414;DHT22;4746;35.664;139.738;2023-02-28T09:18:45;15.90;38.60
9414;DHT22;4746;35.664;139.738;2023-02-28T09:21:15;15.60;38.90
9414;DHT22;4746;35.664;139.738;2023-02-28T09:23:46;15.70;39.20
9414;DHT22;4746;35.664;139.738;2023-02-28T09:26:23;15.70;39.10
9414;DHT22;4746;35.664;139.738;2023-02-28T09:28:54;15.70;39.80
9414;DHT22;4746;35.664;139.738;2023-02-28T09:31:27;15.80;39.70
9414;DHT22;4746;35.664;139.738;2023-02-28T09:33:56;15.80;39.60
9414;DHT22;4746;35.664;139.738;2023-02-28T09:36:26;15.80;39.70
9414;DHT22;4746;35.664;139.738;2023-02-28T09:38:56;15.60;40.10
9414;DHT22;4746;35.664;139.738;2023-02-28T09:41:25;15.60;40.70
9414;DHT22;4746;35.664;139.738;2023-02-28T09:44:04;15.50;40.80
9414;DHT22;4746;35.664;139.738;2023-02-28T09:46:44;15.30;41.60
9414;DHT22;4746;35.664;139.738;2023-02-28T09:49:44;15.20;42.30
9414;DHT22;4746;35.664;139.738;2023-02-28T09:52:21;15.10;42.90
9414;DHT22;4746;35.664;139.738;2023-02-28T09:54:58;15.10;42.80
9414;DHT22;4746;35.664;139.738;2023-02-28T09:57:50;15.10;44.10
9414;DHT22;4746;35.664;139.738;2023-02-28T10:00:32;14.90;44.70
9414;DHT22;4746;35.664;139.738;2023-02-28T10:06:20;14.90;46.20
9414;DHT22;4746;35.664;139.738;2023-02-28T10:09:00;14.80;46.80
9414;DHT22;4746;35.664;139.738;2023-02-28T10:11:34;14.80;47.60
9414;DHT22;4746;35.664;139.738;2023-02-28T10:14:06;14.70;48.00
9414;DHT22;4746;35.664;139.738;2023-02-28T10:22:14;14.80;48.90
9414;DHT22;4746;35.664;139.738;2023-02-28T10:24:53;14.70;49.40
9414;DHT22;4746;35.664;139.738;2023-02-28T10:27:30;14.60;49.80
9414;DHT22;4746;35.664;139.738;2023-02-28T10:30:01;14.60;50.10
9414;DHT22;4746;35.664;139.738;2023-02-28T10:32:32;14.60;50.70
9414;DHT22;4746;35.664;139.738;2023-02-28T10:35:17;14.60;50.60
9414;DHT22;4746;35.664;139.738;2023-02-28T10:37:58;14.60;50.80
9414;DHT22;4746;35.664;139.738;2023-02-28T10:40:34;14.60;50.80
9414;DHT22;4746;35.664;139.738;2023-02-28T10:43:03;14.50;51.20
9414;DHT22;4746;35.664;139.738;2023-02-28T10:45:56;14.50;51.40
9414;DHT22;4746;35.664;139.738;2023-02-28T10:48:27;14.50;52.00
9414;DHT22;4746;35.664;139.738;2023-02-28T10:50:56;14.50;51.60
9414;DHT22;4746;35.664;139.738;2023-02-28T10:53:30;14.50;52.20
9414;DHT22;4746;35.664;139.738;2023-02-28T10:59:01;14.50;52.60
9414;DHT22;4746;35.664;139.738;2023-02-28T11:01:55;14.40;53.10
9414;DHT22;4746;35.664;139.738;2023-02-28T11:09:49;14.40;54.00
9414;DHT22;4746;35.664;139.738;2023-02-28T11:12:37;14.40;55.30
9414;DHT22;4746;35.664;139.738;2023-02-28T11:15:25;14.30;55.10
9414;DHT22;4746;35.664;139.738;2023-02-28T11:18:30;14.20;56.00
9414;DHT22;4746;35.664;139.738;2023-02-28T11:21:06;14.30;57.70
9414;DHT22;4746;35.664;139.738;2023-02-28T11:23:36;14.20;59.60
9414;DHT22;4746;35.664;139.738;2023-02-28T11:26:09;14.30;61.60
9414;DHT22;4746;35.664;139.738;2023-02-28T11:28:40;14.20;66.10
9414;DHT22;4746;35.664;139.738;2023-02-28T11:33:47;14.10;77.70
9414;DHT22;4746;35.664;139.738;2023-02-28T11:38:59;14.10;82.40
9414;DHT22;4746;35.664;139.738;2023-02-28T11:44:29;14.00;92.40
9414;DHT22;4746;35.664;139.738;2023-02-28T12:00:28;13.80;99.90
9414;DHT22;4746;35.664;139.738;2023-02-28T12:11:40;13.70;99.90
9414;DHT22;4746;35.664;139.738;2023-02-28T12:26:02;13.60;99.90
9414;DHT22;4746;35.664;139.738;2023-02-28T12:29:41;13.60;99.90
9414;DHT22;4746;35.664;139.738;2023-02-28T12:32:06;13.60;99.90
9414;DHT22;4746;35.664;139.738;2023-02-28T12:34:52;13.50;99.90
9414;DHT22;4746;35.664;139.738;2023-02-28T12:44:00;13.50;99.90
9414;DHT22;4746;35.664;139.738;2023-02-28T12:46:42;13.40;99.90
9414;DHT22;4746;35.664;139.738;2023-02-28T12:49:39;13.40;99.90
9414;DHT22;4746;35.664;139.738;2023-02-28T12:52:11;13.40;99.90
9414;DHT22;4746;35.664;139.738;2023-02-28T12:57:44;13.30;99.90
9414;DHT22;4746;35.664;139.738;2023-02-28T13:00:38;13.30;99.90
9414;DHT22;4746;35.664;139.738;2023-02-28T13:09:22;13.10;99.90
9414;DHT22;4746;35.664;139.738;2023-02-28T13:11:52;13.20;99.90
9414;DHT22;4746;35.664;139.738;2023-02-28T13:14:37;13.20;99.90
9414;DHT22;4746;35.664;139.738;2023-02-28T13:28:09;13.00;99.90
9414;DHT22;4746;35.664;139.738;2023-02-28T13:36:09;12.90;99.90
9414;DHT22;4746;35.664;139.738;2023-02-28T13:38:42;13.00;99.90
9414;DHT22;4746;35.664;139.738;2023-02-28T13:46:31;12.90;99.90
9414;DHT22;4746;35.664;139.738;2023-02-28T13:49:39;12.90;99.90
9414;DHT22;4746;35.664;139.738;2023-02-28T14:01:08;12.80;99.90
9414;DHT22;4746;35.664;139.738;2023-02-28T14:06:28;12.80;99.90
9414;DHT22;4746;35.664;139.738;2023-02-28T14:09:16;12.70;99.90
9414;DHT22;4746;35.664;139.738;2023-02-28T14:11:56;12.70;99.90
9414;DHT22;4746;35.664;139.738;2023-02-28T14:17:06;12.70;99.90
9414;DHT22;4746;35.664;139.738;2023-02-28T14:19:39;12.70;99.90
9414;DHT22;4746;35.664;139.738;2023-02-28T14:25:39;12.60;99.90
9414;DHT22;4746;35.664;139.738;2023-02-28T14:31:48;12.60;99.90
9414;DHT22;4746;35.664;139.738;2023-02-28T14:37:29;12.60;99.90
9414;DHT22;4746;35.664;139.738;2023-02-28T14:40:04;12.60;99.90
9414;DHT22;4746;35.664;139.738;2023-02-28T14:42:48;12.60;99.90
9414;DHT22;4746;35.664;139.738;2023-02-28T14:45:23;12.60;99.90
9414;DHT22;4746;35.664;139.738;2023-02-28T14:47:51;12.60;99.90
9414;DHT22;4746;35.664;139.738;2023-02-28T14:50:26;12.60;99.90
9414;DHT22;4746;35.664;139.738;2023-02-28T14:52:59;12.60;99.90
9414;DHT22;4746;35.664;139.738;2023-02-28T14:55:35;12.60;99.90
9414;DHT22;4746;35.664;139.738;2023-02-28T14:58:05;12.60;99.90
9414;DHT22;4746;35.664;139.738;2023-02-28T15:00:51;12.50;99.90
9414;DHT22;4746;35.664;139.738;2023-02-28T15:06:16;12.50;99.90
9414;DHT22;4746;35.664;139.738;2023-02-28T15:08:46;12.50;99.90
9414;DHT22;4746;35.664;139.738;2023-02-28T15:11:34;12.50;99.90
9414;DHT22;4746;35.664;139.738;2023-02-28T15:14:04;12.50;99.90
9414;DHT22;4746;35.664;139.738;2023-02-28T15:16:39;12.50;99.90
9414;DHT22;4746;35.664;139.738;2023-02-28T15:19:29;12.50;99.90
9414;DHT22;4746;35.664;139.738;2023-02-28T15:22:04;12.50;99.90
9414;DHT22;4746;35.664;139.738;2023-02-28T15:24:50;12.50;99.90
9414;DHT22;4746;35.664;139.738;2023-02-28T15:27:22;12.50;99.90
9414;DHT22;4746;35.664;139.738;2023-02-28T15:29:59;12.50;99.90
9414;DHT22;4746;35.664;139.738;2023-02-28T15:32:36;12.50;99.90
9414;DHT22;4746;35.664;139.738;2023-02-28T15:35:28;12.50;99.90
9414;DHT22;4746;35.664;139.738;2023-02-28T15:38:01;12.50;99.90
9414;DHT22;4746;35.664;139.738;2023-02-28T15:40:46;12.50;99.90
9414;DHT22;4746;35.664;139.738;2023-02-28T15:46:11;12.40;99.90
9414;DHT22;4746;35.664;139.738;2023-02-28T15:48:51;12.40;99.90
9414;DHT22;4746;35.664;139.738;2023-02-28T15:51:32;12.40;99.90
9414;DHT22;4746;35.664;139.738;2023-02-28T15:54:08;12.40;99.90
9414;DHT22;4746;35.664;139.738;2023-02-28T15:56:53;12.40;99.90
9414;DHT22;4746;35.664;139.738;2023-02-28T15:59:30;12.40;99.90
9414;DHT22;4746;35.664;139.738;2023-02-28T16:02:16;12.40;99.90
9414;DHT22;4746;35.664;139.738;2023-02-28T16:05:26;12.40;99.90
9414;DHT22;4746;35.664;139.738;2023-02-28T16:08:13;12.40;99.90
9414;DHT22;4746;35.664;139.738;2023-02-28T16:10:42;12.30;99.90
9414;DHT22;4746;35.664;139.738;2023-02-28T16:13:12;12.40;99.90
9414;DHT22;4746;35.664;139.738;2023-02-28T16:15:43;12.30;99.90
9414;DHT22;4746;35.664;139.738;2023-02-28T16:18:12;12.30;99.90
9414;DHT22;4746;35.664;139.738;2023-02-28T16:20:41;12.30;99.90
9414;DHT22;4746;35.664;139.738;2023-02-28T16:23:12;12.20;99.90
9414;DHT22;4746;35.664;139.738;2023-02-28T16:25:42;12.30;99.90
9414;DHT22;4746;35.664;139.738;2023-02-28T16:28:30;12.30;99.90
9414;DHT22;4746;35.664;139.738;2023-02-28T16:31:06;12.20;99.90
9414;DHT22;4746;35.664;139.738;2023-02-28T16:33:38;12.20;99.90
9414;DHT22;4746;35.664;139.738;2023-02-28T16:36:16;12.20;99.90
9414;DHT22;4746;35.664;139.738;2023-02-28T16:38:46;12.20;99.90
9414;DHT22;4746;35.664;139.738;2023-02-28T16:41:20;12.20;99.90
9414;DHT22;4746;35.664;139.738;2023-02-28T16:43:53;12.10;99.90
9414;DHT22;4746;35.664;139.738;2023-02-28T16:46:34;12.10;99.90
9414;DHT22;4746;35.664;139.738;2023-02-28T16:49:03;12.10;99.90
9414;DHT22;4746;35.664;139.738;2023-02-28T16:51:31;12.10;99.90
9414;DHT22;4746;35.664;139.738;2023-02-28T16:54:00;12.10;99.90
9414;DHT22;4746;35.664;139.738;2023-02-28T16:56:29;12.10;99.90
9414;DHT22;4746;35.664;139.738;2023-02-28T16:59:00;12.20;99.90
9414;DHT22;4746;35.664;139.738;2023-02-28T17:01:32;12.20;99.90
9414;DHT22;4746;35.664;139.738;2023-02-28T17:03:59;12.20;99.90
9414;DHT22;4746;35.664;139.738;2023-02-28T17:06:28;12.20;99.90
9414;DHT22;4746;35.664;139.738;2023-02-28T17:08:58;12.20;99.90
9414;DHT22;4746;35.664;139.738;2023-02-28T17:11:26;12.20;99.90
9414;DHT22;4746;35.664;139.738;2023-02-28T17:13:54;12.20;99.90
9414;DHT22;4746;35.664;139.738;2023-02-28T17:16:33;12.20;99.90
9414;DHT22;4746;35.664;139.738;2023-02-28T17:19:17;12.20;99.90
9414;DHT22;4746;35.664;139.738;2023-02-28T17:21:45;12.20;99.90
9414;DHT22;4746;35.664;139.738;2023-02-28T17:24:13;12.20;99.90
9414;DHT22;4746;35.664;139.738;2023-02-28T17:26:41;12.20;99.90
9414;DHT22;4746;35.664;139.738;2023-02-28T17:29:18;12.20;99.90
9414;DHT22;4746;35.664;139.738;2023-02-28T17:31:47;12.10;99.90
9414;DHT22;4746;35.664;139.738;2023-02-28T17:34:15;12.20;99.90
9414;DHT22;4746;35.664;139.738;2023-02-28T17:36:45;12.20;99.90
9414;DHT22;4746;35.664;139.738;2023-02-28T17:39:15;12.10;99.90
9414;DHT22;4746;35.664;139.738;2023-02-28T17:42:00;12.10;99.90
9414;DHT22;4746;35.664;139.738;2023-02-28T17:44:37;12.10;99.90
9414;DHT22;4746;35.664;139.738;2023-02-28T17:47:04;12.10;99.90
9414;DHT22;4746;35.664;139.738;2023-02-28T17:49:42;12.10;99.90
9414;DHT22;4746;35.664;139.738;2023-02-28T17:52:17;12.10;99.90
9414;DHT22;4746;35.664;139.738;2023-02-28T17:55:07;12.10;99.90
9414;DHT22;4746;35.664;139.738;2023-02-28T17:57:49;12.10;99.90
9414;DHT22;4746;35.664;139.738;2023-02-28T18:00:17;12.10;99.90
9414;DHT22;4746;35.664;139.738;2023-02-28T18:02:46;12.10;99.90
9414;DHT22;4746;35.664;139.738;2023-02-28T18:05:13;12.10;99.90
9414;DHT22;4746;35.664;139.738;2023-02-28T18:07:44;12.10;99.90
9414;DHT22;4746;35.664;139.738;2023-02-28T18:10:16;12.10;99.90
9414;DHT22;4746;35.664;139.738;2023-02-28T18:12:50;12.10;99.90
9414;DHT22;4746;35.664;139.738;2023-02-28T18:15:20;12.10;99.90
9414;DHT22;4746;35.664;139.738;2023-02-28T18:17:49;12.00;99.90
9414;DHT22;4746;35.664;139.738;2023-02-28T18:20:17;12.00;99.90
9414;DHT22;4746;35.664;139.738;2023-02-28T18:22:45;12.00;99.90
9414;DHT22;4746;35.664;139.738;2023-02-28T18:25:13;12.00;99.90
9414;DHT22;4746;35.664;139.738;2023-02-28T18:27:46;12.00;99.90
9414;DHT22;4746;35.664;139.738;2023-02-28T18:30:28;12.00;99.90
9414;DHT22;4746;35.664;139.738;2023-02-28T18:33:00;12.00;99.90
9414;DHT22;4746;35.664;139.738;2023-02-28T18:35:28;12.00;99.90
9414;DHT22;4746;35.664;139.738;2023-02-28T18:38:02;12.00;99.90
9414;DHT22;4746;35.664;139.738;2023-02-28T18:40:32;12.00;99.90
9414;DHT22;4746;35.664;139.738;2023-02-28T18:42:59;12.00;99.90
9414;DHT22;4746;35.664;139.738;2023-02-28T18:45:27;12.00;99.90
9414;DHT22;4746;35.664;139.738;2023-02-28T18:47:55;12.00;99.90
9414;DHT22;4746;35.664;139.738;2023-02-28T18:50:22;12.00;99.90
9414;DHT22;4746;35.664;139.738;2023-02-28T18:52:50;12.00;99.90
9414;DHT22;4746;35.664;139.738;2023-02-28T18:55:19;12.00;99.90
9414;DHT22;4746;35.664;139.738;2023-02-28T18:57:48;12.00;99.50
9414;DHT22;4746;35.664;139.738;2023-02-28T19:00:16;12.00;98.30
9414;DHT22;4746;35.664;139.738;2023-02-28T19:02:50;12.00;98.20
9414;DHT22;4746;35.664;139.738;2023-02-28T19:05:19;12.00;97.30
9414;DHT22;4746;35.664;139.738;2023-02-28T19:07:47;12.00;96.60